Time;durP1;ratioP1;P1;durP2;ratioP2;P2;SDS_P1;SDS_P2;PMS_P1;PMS_P2;Temp;Humidity;BMP_temperature;BMP_pressure;BME280_temperature;BME280_humidity;BME280_pressure;Samples;Min_cycle;Max_cycle;Signal;HPM_P1;HPM_P2
2022/03/11 00:01:00;;;;;;;20.25;10.98;;;;;;;;;;4821777;29;20173;-66
2022/03/11 00:03:26;;;;;;;21.02;10.40;;;;;;;;;;4821105;29;20050;-69
2022/03/11 00:05:52;;;;;;;20.10;11.23;;;;;;;;;;4821839;29;20141;-66
2022/03/11 00:08:18;;;;;;;20.20;11.43;;;;;;;;;;4805263;29;20058;-65
2022/03/11 00:10:44;;;;;;;22.52;10.88;;;;;;;;;;4835302;29;20061;-75
2022/03/11 00:13:11;;;;;;;21.08;10.63;;;;;;;;;;4821552;29;20107;-70
2022/03/11 00:15:37;;;;;;;18.90;10.25;;;;;;;;;;4823025;29;20054;-73
2022/03/11 00:18:03;;;;;;;;;;;;;;;;;;4823587;29;20057;-66
2022/03/11 00:20:31;;;;;;;22.48;11.10;;;;;;;;;;4821593;29;19925;-67
2022/03/11 00:22:58;;;;;;;20.17;10.80;;;;;;;;;;4805520;29;20081;-66
2022/03/11 00:25:23;;;;;;;;;;;;;;;;;;4822122;29;20101;-66
2022/03/11 00:27:51;;;;;;;18.90;11.02;;;;;;;;;;4820976;29;19929;-71
2022/03/11 00:30:17;;;;;;;21.40;11.13;;;;;;;;;;4820714;29;20046;-75
2022/03/11 00:32:43;;;;;;;22.63;11.57;;;;;;;;;;4821983;29;20453;-67
2022/03/11 00:35:10;;;;;;;20.52;10.38;;;;;;;;;;4821649;29;20066;-71
2022/03/11 00:37:37;;;;;;;20.90;10.63;;;;;;;;;;4821746;29;20113;-67
2022/03/11 00:40:03;;;;;;;22.27;11.27;;;;;;;;;;4820644;29;20388;-76
2022/03/11 00:42:29;;;;;;;21.63;10.73;;;;;;;;;;4821710;29;20046;-70
2022/03/11 00:44:55;;;;;;;19.35;10.45;;;;;;;;;;4821930;29;20065;-69
2022/03/11 00:47:21;;;;;;;19.33;10.13;;;;;;;;;;4821324;29;20092;-85
2022/03/11 00:49:47;;;;;;;18.90;10.45;;;;;;;;;;4821208;29;20502;-67
2022/03/11 00:52:13;;;;;;;20.52;10.45;;;;;;;;;;4821470;29;20050;-63
2022/03/11 00:54:39;;;;;;;20.25;10.80;;;;;;;;;;4821063;29;20061;-69
2022/03/11 00:57:05;;;;;;;25.63;10.82;;;;;;;;;;4821562;29;20065;-70
2022/03/11 00:59:35;;;;;;;19.10;10.32;;;;;;;;;;4821211;29;20055;-74
2022/03/11 01:02:01;;;;;;;20.85;10.40;;;;;;;;;;4821444;29;20118;-72
2022/03/11 01:04:27;;;;;;;19.42;10.15;;;;;;;;;;4820462;29;20480;-67
2022/03/11 01:06:53;;;;;;;21.48;10.38;;;;;;;;;;4821410;29;20050;-70
2022/03/11 01:09:19;;;;;;;20.35;10.73;;;;;;;;;;4821622;29;20054;-69
2022/03/11 01:11:45;;;;;;;19.70;11.05;;;;;;;;;;4821637;29;20401;-67
2022/03/11 01:14:12;;;;;;;20.60;10.57;;;;;;;;;;4820670;29;20449;-74
2022/03/11 01:16:38;;;;;;;22.60;10.98;;;;;;;;;;4820672;29;20073;-74
2022/03/11 01:19:04;;;;;;;19.48;11.73;;;;;;;;;;4820998;29;20061;-69
2022/03/11 01:21:30;;;;;;;22.38;11.40;;;;;;;;;;4820695;29;20054;-75
2022/03/11 01:23:56;;;;;;;22.25;10.55;;;;;;;;;;4820680;29;20046;-71
2022/03/11 01:26:23;;;;;;;21.88;11.20;;;;;;;;;;4820257;29;20073;-71
2022/03/11 01:28:49;;;;;;;;;;;;;;;;;;4821320;29;20057;-69
2022/03/11 01:31:17;;;;;;;21.67;11.43;;;;;;;;;;4821233;29;20250;-69
2022/03/11 01:33:44;;;;;;;23.20;11.93;;;;;;;;;;4821123;29;20081;-73
2022/03/11 01:36:10;;;;;;;22.30;11.98;;;;;;;;;;4820920;29;20112;-69
2022/03/11 01:38:36;;;;;;;;;;;;;;;;;;4820488;29;20099;-70
2022/03/11 01:41:03;;;;;;;23.90;12.20;;;;;;;;;;4820545;29;20024;-66
2022/03/11 01:43:29;;;;;;;24.20;12.90;;;;;;;;;;4820401;29;20061;-69
2022/03/11 01:45:56;;;;;;;21.48;13.13;;;;;;;;;;4819711;29;20050;-69
2022/03/11 01:48:23;;;;;;;23.95;12.93;;;;;;;;;;4820338;29;20141;-74
2022/03/11 01:50:49;;;;;;;22.58;12.60;;;;;;;;;;4819659;29;20445;-71
2022/03/11 01:53:15;;;;;;;23.80;13.95;;;;;;;;;;4833815;29;20104;-69
2022/03/11 01:55:41;;;;;;;22.58;13.18;;;;;;;;;;4820586;29;20047;-67
2022/03/11 01:58:08;;;;;;;23.60;12.98;;;;;;;;;;4820473;29;20050;-73
2022/03/11 02:00:38;;;;;;;24.80;13.00;;;;;;;;;;4820443;29;20148;-65
2022/03/11 02:03:04;;;;;;;28.08;14.00;;;;;;;;;;4820150;29;20046;-68
2022/03/11 02:05:30;;;;;;;24.65;14.32;;;;;;;;;;4820150;29;20199;-71
2022/03/11 02:07:59;;;;;;;23.73;13.70;;;;;;;;;;4820356;29;20054;-67
2022/03/11 02:10:30;;;;;;;24.00;14.70;;;;;;;;;;4820327;29;20100;-72
2022/03/11 02:12:57;;;;;;;27.92;14.90;;;;;;;;;;4833754;29;20441;-71
2022/03/11 02:15:24;;;;;;;26.83;14.57;;;;;;;;;;4819909;29;20050;-65
2022/03/11 02:17:50;;;;;;;24.80;14.35;;;;;;;;;;4803170;29;20137;-69
2022/03/11 02:20:16;;;;;;;28.58;15.52;;;;;;;;;;4803809;29;20101;-69
2022/03/11 02:22:44;;;;;;;28.00;15.70;;;;;;;;;;4819523;29;20133;-74
2022/03/11 02:25:10;;;;;;;28.05;15.65;;;;;;;;;;4833707;29;20061;-76
2022/03/11 02:27:37;;;;;;;28.85;16.23;;;;;;;;;;4822255;29;20066;-69
2022/03/11 02:30:04;;;;;;;30.17;16.92;;;;;;;;;;4806764;29;20111;-68
2022/03/11 02:32:30;;;;;;;29.48;16.08;;;;;;;;;;4823577;29;20165;-67
2022/03/11 02:34:56;;;;;;;28.48;16.70;;;;;;;;;;4823358;29;20146;-68
2022/03/11 02:37:22;;;;;;;30.70;17.67;;;;;;;;;;4822852;29;20058;-70
2022/03/11 02:39:48;;;;;;;30.42;17.58;;;;;;;;;;4807005;29;20046;-75
2022/03/11 02:42:14;;;;;;;29.77;19.50;;;;;;;;;;4823248;29;20050;-69
2022/03/11 02:44:41;;;;;;;31.25;18.23;;;;;;;;;;4837308;29;20153;-69
2022/03/11 02:47:07;;;;;;;34.67;18.88;;;;;;;;;;4823137;29;20054;-70
2022/03/11 02:49:33;;;;;;;32.55;18.73;;;;;;;;;;4822895;29;20349;-68
2022/03/11 02:52:00;;;;;;;32.10;19.50;;;;;;;;;;4823016;29;20062;-72
2022/03/11 02:54:26;;;;;;;32.05;18.48;;;;;;;;;;4836639;29;20073;-68
2022/03/11 02:56:52;;;;;;;33.42;18.75;;;;;;;;;;4822698;29;20054;-64
2022/03/11 02:59:18;;;;;;;31.98;18.65;;;;;;;;;;4822714;29;20055;-67
2022/03/11 03:01:44;;;;;;;34.38;20.45;;;;;;;;;;4822871;29;20073;-65
2022/03/11 03:04:11;;;;;;;33.53;20.75;;;;;;;;;;4823237;29;20111;-72
2022/03/11 03:06:37;;;;;;;33.95;21.00;;;;;;;;;;4822345;29;20058;-67
2022/03/11 03:09:03;;;;;;;33.95;19.63;;;;;;;;;;4822717;29;20130;-68
2022/03/11 03:11:29;;;;;;;34.67;21.25;;;;;;;;;;4822417;29;20058;-72
2022/03/11 03:13:55;;;;;;;33.88;21.35;;;;;;;;;;4822419;29;20057;-71
2022/03/11 03:16:21;;;;;;;35.90;20.45;;;;;;;;;;4822192;29;20145;-73
2022/03/11 03:18:47;;;;;;;34.67;20.65;;;;;;;;;;4822579;29;20480;-74
2022/03/11 03:21:13;;;;;;;36.45;21.45;;;;;;;;;;4822662;29;20050;-70
2022/03/11 03:23:40;;;;;;;35.80;20.88;;;;;;;;;;4822032;29;20046;-72
2022/03/11 03:26:06;;;;;;;37.85;21.63;;;;;;;;;;4822481;29;20042;-69
2022/03/11 03:28:32;;;;;;;35.20;22.50;;;;;;;;;;4822188;29;20393;-72
2022/03/11 03:30:58;;;;;;;34.47;22.05;;;;;;;;;;4822139;29;20133;-72
2022/03/11 03:33:24;;;;;;;34.95;22.27;;;;;;;;;;4822327;29;20086;-69
2022/03/11 03:35:50;;;;;;;38.55;23.88;;;;;;;;;;4822108;29;20051;-68
2022/03/11 03:38:16;;;;;;;36.38;22.98;;;;;;;;;;4835520;29;20050;-67
2022/03/11 03:40:42;;;;;;;36.45;22.33;;;;;;;;;;4822317;29;20201;-66
2022/03/11 03:43:08;;;;;;;37.03;23.77;;;;;;;;;;4822423;29;20121;-66
2022/03/11 03:45:34;;;;;;;39.75;22.65;;;;;;;;;;4822608;29;20206;-69
2022/03/11 03:48:00;;;;;;;36.75;22.30;;;;;;;;;;4822316;29;20046;-67
2022/03/11 03:50:27;;;;;;;38.67;23.35;;;;;;;;;;4775815;29;20062;-66
2022/03/11 03:52:53;;;;;;;40.38;24.08;;;;;;;;;;4822236;29;20414;-67
2022/03/11 03:55:19;;;;;;;37.20;22.40;;;;;;;;;;4821914;29;20486;-69
2022/03/11 03:57:45;;;;;;;38.30;22.85;;;;;;;;;;4822066;29;20050;-67
2022/03/11 04:00:12;;;;;;;36.95;23.90;;;;;;;;;;4822365;29;20100;-66
2022/03/11 04:02:38;;;;;;;;;;;;;;;;;;4822873;29;20054;-68
2022/03/11 04:05:04;;;;;;;37.83;24.10;;;;;;;;;;4822006;29;19925;-67
2022/03/11 04:07:30;;;;;;;39.05;23.23;;;;;;;;;;4805417;29;20158;-66
2022/03/11 04:09:56;;;;;;;41.08;24.20;;;;;;;;;;4805289;29;20050;-66
2022/03/11 04:12:23;;;;;;;39.78;24.13;;;;;;;;;;4821916;29;20062;-71
2022/03/11 04:14:49;;;;;;;34.80;22.75;;;;;;;;;;4821871;29;20073;-70
2022/03/11 04:17:15;;;;;;;41.75;24.85;;;;;;;;;;4805385;29;20050;-67
2022/03/11 04:19:41;;;;;;;37.03;23.67;;;;;;;;;;4822153;29;20348;-66
2022/03/11 04:22:07;;;;;;;38.83;24.77;;;;;;;;;;4821961;29;20055;-67
2022/03/11 04:24:33;;;;;;;37.55;24.45;;;;;;;;;;4821547;29;20098;-65
2022/03/11 04:26:59;;;;;;;39.08;24.33;;;;;;;;;;4821325;29;20050;-66
2022/03/11 04:29:26;;;;;;;39.15;24.98;;;;;;;;;;4821442;29;20058;-64
2022/03/11 04:31:52;;;;;;;40.92;26.00;;;;;;;;;;4821225;29;20069;-71
2022/03/11 04:34:19;;;;;;;;;;;;;;;;;;4821448;29;20139;-70
2022/03/11 04:36:45;;;;;;;40.53;24.97;;;;;;;;;;4821445;29;19971;-67
2022/03/11 04:39:11;;;;;;;39.30;24.73;;;;;;;;;;4821050;29;20291;-68
2022/03/11 04:41:37;;;;;;;40.53;24.63;;;;;;;;;;4821249;29;20104;-67
2022/03/11 04:44:04;;;;;;;40.80;25.73;;;;;;;;;;4821166;29;20046;-66
2022/03/11 04:46:30;;;;;;;;;;;;;;;;;;4821792;29;20054;-70
2022/03/11 04:48:56;;;;;;;41.13;26.98;;;;;;;;;;4820419;29;20000;-69
2022/03/11 04:51:22;;;;;;;38.13;24.77;;;;;;;;;;4820998;29;20148;-70
2022/03/11 04:53:51;;;;;;;38.78;25.38;;;;;;;;;;4821178;29;20153;-68
2022/03/11 04:56:17;;;;;;;41.55;24.75;;;;;;;;;;4821038;29;20054;-71
2022/03/11 04:58:43;;;;;;;38.25;25.05;;;;;;;;;;4821608;29;20051;-67
2022/03/11 05:01:09;;;;;;;40.30;25.92;;;;;;;;;;4821693;29;20054;-68
2022/03/11 05:03:35;;;;;;;41.10;26.08;;;;;;;;;;4834770;29;20445;-68
2022/03/11 05:06:01;;;;;;;40.97;25.83;;;;;;;;;;4821498;29;20156;-72
2022/03/11 05:08:28;;;;;;;42.05;25.13;;;;;;;;;;4821174;29;20058;-67
2022/03/11 05:10:54;;;;;;;37.15;23.80;;;;;;;;;;4821487;29;20106;-73
2022/03/11 05:13:20;;;;;;;39.28;24.33;;;;;;;;;;4834880;29;20205;-67
2022/03/11 05:15:46;;;;;;;39.38;25.17;;;;;;;;;;4821539;29;20137;-70
2022/03/11 05:18:12;;;;;;;41.65;26.30;;;;;;;;;;4820977;29;20050;-68
2022/03/11 05:20:38;;;;;;;38.55;24.90;;;;;;;;;;4821452;29;20141;-69
2022/03/11 05:23:05;;;;;;;38.47;24.23;;;;;;;;;;4804279;29;20046;-66
2022/03/11 05:25:31;;;;;;;37.97;25.80;;;;;;;;;;4820906;29;20050;-66
2022/03/11 05:27:57;;;;;;;41.17;24.88;;;;;;;;;;4820900;29;20090;-68
2022/03/11 05:30:23;;;;;;;40.47;25.63;;;;;;;;;;4820789;29;20057;-66
2022/03/11 05:32:49;;;;;;;43.38;26.90;;;;;;;;;;4821008;29;20046;-72
2022/03/11 05:35:16;;;;;;;39.50;24.45;;;;;;;;;;4821109;29;20065;-66
2022/03/11 05:37:42;;;;;;;40.83;24.20;;;;;;;;;;4821523;29;20137;-67
2022/03/11 05:40:09;;;;;;;44.83;25.60;;;;;;;;;;4820714;29;20046;-68
2022/03/11 05:42:35;;;;;;;41.30;25.50;;;;;;;;;;4820848;29;20050;-65
2022/03/11 05:45:02;;;;;;;41.85;26.65;;;;;;;;;;4821136;29;20156;-66
2022/03/11 05:47:29;;;;;;;41.53;25.67;;;;;;;;;;4834541;29;20140;-69
2022/03/11 05:49:55;;;;;;;39.75;25.08;;;;;;;;;;4820359;29;20073;-69
2022/03/11 05:52:22;;;;;;;41.78;26.48;;;;;;;;;;4819947;29;20123;-69
2022/03/11 05:54:48;;;;;;;45.08;25.40;;;;;;;;;;4803883;29;20062;-64
2022/03/11 05:57:14;;;;;;;41.47;26.48;;;;;;;;;;4820204;29;20464;-70
2022/03/11 05:59:40;;;;;;;41.40;25.30;;;;;;;;;;4819319;29;20081;-69
2022/03/11 06:02:06;;;;;;;40.08;26.73;;;;;;;;;;4820661;29;20233;-68
2022/03/11 06:04:32;;;;;;;44.45;26.08;;;;;;;;;;4821887;29;20053;-67
2022/03/11 06:06:58;;;;;;;42.50;25.58;;;;;;;;;;4821849;29;20047;-66
2022/03/11 06:09:24;;;;;;;41.65;27.13;;;;;;;;;;4822164;29;20062;-69
2022/03/11 06:11:53;;;;;;;43.03;25.80;;;;;;;;;;4821880;29;20179;-68
2022/03/11 06:14:19;;;;;;;41.30;26.45;;;;;;;;;;4805889;29;20142;-68
2022/03/11 06:16:45;;;;;;;40.63;25.20;;;;;;;;;;4821918;29;20066;-66
2022/03/11 06:19:12;;;;;;;47.33;27.05;;;;;;;;;;4821802;29;20105;-68
2022/03/11 06:21:39;;;;;;;41.55;26.13;;;;;;;;;;4805480;29;20371;-64
2022/03/11 06:24:05;;;;;;;39.88;25.15;;;;;;;;;;4821628;29;20046;-66
2022/03/11 06:26:31;;;;;;;38.45;25.25;;;;;;;;;;4805618;29;20066;-63
2022/03/11 06:28:59;;;;;;;38.72;24.70;;;;;;;;;;4821687;29;20390;-69
2022/03/11 06:31:25;;;;;;;42.38;25.10;;;;;;;;;;4821607;29;20453;-68
2022/03/11 06:33:53;;;;;;;43.15;24.95;;;;;;;;;;4835137;29;20505;-66
2022/03/11 06:36:19;;;;;;;44.22;26.13;;;;;;;;;;4821589;29;20046;-71
2022/03/11 06:38:45;;;;;;;42.55;25.42;;;;;;;;;;4835344;29;20111;-66
2022/03/11 06:41:12;;;;;;;43.00;25.60;;;;;;;;;;4821371;29;20055;-63
2022/03/11 06:43:38;;;;;;;40.20;24.98;;;;;;;;;;4835013;29;20439;-67
2022/03/11 06:46:04;;;;;;;39.47;23.40;;;;;;;;;;4821654;29;20415;-69
2022/03/11 06:48:34;;;;;;;42.22;25.77;;;;;;;;;;4821502;29;20058;-65
2022/03/11 06:51:04;;;;;;;41.78;24.05;;;;;;;;;;4821023;29;20073;-63
2022/03/11 06:53:31;;;;;;;40.40;25.80;;;;;;;;;;4821481;29;20183;-64
2022/03/11 06:55:57;;;;;;;40.47;25.25;;;;;;;;;;4821608;29;20090;-70
2022/03/11 06:58:23;;;;;;;39.15;23.70;;;;;;;;;;4804861;29;20047;-67
2022/03/11 07:00:49;;;;;;;40.45;24.17;;;;;;;;;;4821254;29;20092;-65
2022/03/11 07:03:16;;;;;;;39.20;24.95;;;;;;;;;;4821525;29;20510;-69
2022/03/11 07:05:42;;;;;;;43.35;26.92;;;;;;;;;;4821182;29;20079;-66
2022/03/11 07:08:10;;;;;;;38.83;24.70;;;;;;;;;;4820681;29;20065;-67
2022/03/11 07:10:36;;;;;;;37.45;24.75;;;;;;;;;;4822299;29;20137;-65
2022/03/11 07:13:02;;;;;;;;;;;;;;;;;;4821401;29;20115;-65
2022/03/11 07:15:28;;;;;;;40.70;24.40;;;;;;;;;;4820788;29;19928;-67
2022/03/11 07:17:54;;;;;;;43.42;24.70;;;;;;;;;;4820466;29;20070;-69
2022/03/11 07:20:20;;;;;;;40.05;24.88;;;;;;;;;;4820604;29;20074;-63
2022/03/11 07:22:48;;;;;;;43.80;25.77;;;;;;;;;;4820368;29;20512;-66
2022/03/11 07:25:15;;;;;;;39.38;23.83;;;;;;;;;;4835517;29;20496;-67
2022/03/11 07:27:41;;;;;;;40.03;24.63;;;;;;;;;;4821034;29;20073;-68
2022/03/11 07:30:09;;;;;;;;;;;;;;;;;;4821046;29;20404;-69
2022/03/11 07:32:35;;;;;;;37.72;24.50;;;;;;;;;;4820627;29;20009;-67
2022/03/11 07:35:02;;;;;;;33.88;22.30;;;;;;;;;;4818919;29;20065;-66
2022/03/11 07:37:28;;;;;;;38.95;24.83;;;;;;;;;;4820651;29;20107;-66
2022/03/11 07:39:54;;;;;;;40.53;24.42;;;;;;;;;;4820926;29;20054;-65
2022/03/11 07:42:20;;;;;;;42.25;23.70;;;;;;;;;;4821196;29;20514;-70
2022/03/11 07:44:47;;;;;;;37.63;22.88;;;;;;;;;;4820571;29;20457;-65
2022/03/11 07:47:13;;;;;;;38.70;24.95;;;;;;;;;;4821081;29;20050;-65
2022/03/11 07:49:39;;;;;;;41.88;24.88;;;;;;;;;;4820304;29;20070;-65
2022/03/11 07:52:14;;;;;;;38.78;23.58;;;;;;;;;;4820665;29;20452;-63
2022/03/11 07:54:41;;;;;;;35.33;23.02;;;;;;;;;;4820753;29;20066;-66
2022/03/11 07:57:07;;;;;;;39.00;23.55;;;;;;;;;;4820279;29;20124;-65
2022/03/11 07:59:34;;;;;;;37.22;22.23;;;;;;;;;;4820414;29;20073;-68
2022/03/11 08:02:00;;;;;;;35.63;22.63;;;;;;;;;;4821315;29;20058;-66
2022/03/11 08:04:29;;;;;;;37.80;24.00;;;;;;;;;;4820755;29;20122;-65
2022/03/11 08:06:55;;;;;;;40.05;23.63;;;;;;;;;;4820087;29;20139;-66
2022/03/11 08:09:21;;;;;;;38.33;23.30;;;;;;;;;;4820042;29;20488;-65
2022/03/11 08:11:47;;;;;;;42.95;23.25;;;;;;;;;;4820041;29;20089;-65
2022/03/11 08:14:14;;;;;;;36.92;23.30;;;;;;;;;;4819506;29;20464;-68
2022/03/11 08:16:39;;;;;;;;;;;;;;;;;;4820424;29;20396;-68
2022/03/11 08:19:07;;;;;;;39.50;23.30;;;;;;;;;;4819760;29;19947;-65
2022/03/11 08:21:34;;;;;;;38.33;22.65;;;;;;;;;;4819141;29;20461;-67
2022/03/11 08:24:00;;;;;;;35.92;23.23;;;;;;;;;;4819725;29;20050;-66
2022/03/11 08:26:27;;;;;;;36.33;21.25;;;;;;;;;;4819574;29;20050;-65
2022/03/11 08:28:53;;;;;;;;;;;;;;;;;;4803339;29;20096;-67
2022/03/11 08:31:19;;;;;;;41.50;23.33;;;;;;;;;;4820092;29;19924;-63
2022/03/11 08:33:45;;;;;;;41.35;22.40;;;;;;;;;;4819938;29;20053;-70
2022/03/11 08:36:11;;;;;;;38.65;21.85;;;;;;;;;;4819692;29;20137;-64
2022/03/11 08:38:38;;;;;;;34.80;21.17;;;;;;;;;;4819655;29;20137;-67
2022/03/11 08:41:07;;;;;;;40.13;22.85;;;;;;;;;;4819910;29;20046;-67
2022/03/11 08:43:34;;;;;;;39.55;22.15;;;;;;;;;;4832914;29;20157;-62
2022/03/11 08:46:01;;;;;;;35.72;20.30;;;;;;;;;;4819669;29;20376;-72
2022/03/11 08:48:28;;;;;;;;;;;;;;;;;;4820168;29;20110;-66
2022/03/11 08:50:54;;;;;;;42.22;23.27;;;;;;;;;;4819450;29;19925;-67
2022/03/11 08:53:20;;;;;;;36.45;22.13;;;;;;;;;;4819659;29;20047;-68
2022/03/11 08:55:46;;;;;;;44.92;23.13;;;;;;;;;;4819415;29;20150;-64
2022/03/11 08:58:13;;;;;;;41.50;23.67;;;;;;;;;;4819353;29;20073;-67
2022/03/11 09:00:41;;;;;;;35.58;21.70;;;;;;;;;;4802366;29;20125;-66
2022/03/11 09:03:07;;;;;;;35.33;21.55;;;;;;;;;;4802880;29;20194;-66
2022/03/11 09:05:33;;;;;;;41.42;22.48;;;;;;;;;;4819223;29;20069;-69
2022/03/11 09:08:00;;;;;;;35.50;20.90;;;;;;;;;;4832662;29;20157;-65
2022/03/11 09:10:26;;;;;;;42.58;21.85;;;;;;;;;;4818813;29;20516;-67
2022/03/11 09:12:52;;;;;;;38.25;23.20;;;;;;;;;;4802565;29;20062;-65
2022/03/11 09:15:19;;;;;;;35.97;21.50;;;;;;;;;;4818954;29;20203;-64
2022/03/11 09:17:45;;;;;;;37.60;22.23;;;;;;;;;;4818931;29;20460;-64
2022/03/11 09:20:12;;;;;;;;;;;;;;;;;;4802674;29;20060;-65
2022/03/11 09:22:39;;;;;;;38.33;22.80;;;;;;;;;;4818898;29;19928;-67
2022/03/11 09:25:07;;;;;;;38.03;21.48;;;;;;;;;;4818753;29;20153;-65
2022/03/11 09:27:33;;;;;;;35.65;21.40;;;;;;;;;;4818698;29;20105;-65
2022/03/11 09:29:59;;;;;;;38.50;20.60;;;;;;;;;;4818602;29;20057;-65
2022/03/11 09:32:25;;;;;;;;;;;;;;;;;;4819068;29;20060;-67
2022/03/11 09:34:52;;;;;;;40.30;22.38;;;;;;;;;;4818438;29;19969;-64
2022/03/11 09:37:18;;;;;;;37.58;22.23;;;;;;;;;;4822184;29;20352;-66
2022/03/11 09:39:45;;;;;;;;;;;;;;;;;;4823023;29;20240;-64
2022/03/11 09:42:11;;;;;;;37.45;21.38;;;;;;;;;;4822058;29;20370;-65
2022/03/11 09:44:40;;;;;;;37.17;22.17;;;;;;;;;;4821995;29;20107;-66
2022/03/11 09:47:07;;;;;;;36.15;20.92;;;;;;;;;;4822073;29;20054;-69
2022/03/11 09:49:35;;;;;;;38.30;21.35;;;;;;;;;;4821898;29;20516;-63
2022/03/11 09:52:07;;;;;;;36.35;22.48;;;;;;;;;;4805788;29;20153;-66
2022/03/11 09:54:34;;;;;;;34.88;21.05;;;;;;;;;;4821913;29;20131;-65
2022/03/11 09:57:00;;;;;;;;;;;;;;;;;;4823009;29;20059;-70
2022/03/11 09:59:26;;;;;;;33.38;19.70;;;;;;;;;;4821962;29;19951;-67
2022/03/11 10:01:53;;;;;;;32.78;19.45;;;;;;;;;;4835627;29;20183;-69
2022/03/11 10:04:21;;;;;;;36.28;20.33;;;;;;;;;;4821621;29;20594;-66
2022/03/11 10:06:48;;;;;;;38.63;21.52;;;;;;;;;;4821821;29;20118;-64
2022/03/11 10:09:20;;;;;;;33.15;21.35;;;;;;;;;;4821937;29;20050;-64
2022/03/11 10:11:49;;;;;;;34.90;21.15;;;;;;;;;;4805079;29;20178;-65
2022/03/11 10:14:16;;;;;;;40.85;21.00;;;;;;;;;;4805414;29;20058;-68
2022/03/11 10:16:44;;;;;;;36.42;20.63;;;;;;;;;;4821838;29;20161;-65
2022/03/11 10:19:11;;;;;;;35.92;20.20;;;;;;;;;;4821577;29;20094;-66
2022/03/11 10:21:38;;;;;;;31.48;19.35;;;;;;;;;;4821482;29;20050;-66
2022/03/11 10:24:06;;;;;;;34.22;19.75;;;;;;;;;;4821779;29;20455;-65
2022/03/11 10:26:32;;;;;;;33.95;19.52;;;;;;;;;;4821349;29;20142;-65
2022/03/11 10:28:58;;;;;;;36.40;20.88;;;;;;;;;;4821752;29;20118;-64
2022/03/11 10:31:34;;;;;;;35.60;20.95;;;;;;;;;;4821520;29;20078;-65
2022/03/11 10:34:12;;;;;;;36.90;19.75;;;;;;;;;;4821388;29;20042;-65
2022/03/11 10:36:46;;;;;;;36.65;19.80;;;;;;;;;;4821274;29;20205;-64
2022/03/11 10:39:14;;;;;;;35.13;20.27;;;;;;;;;;4821554;29;20200;-67
2022/03/11 10:41:40;;;;;;;39.90;19.30;;;;;;;;;;4821001;29;20535;-65
2022/03/11 10:44:09;;;;;;;32.45;19.35;;;;;;;;;;4834768;29;20082;-68
2022/03/11 10:46:35;;;;;;;36.00;19.38;;;;;;;;;;4821313;29;20062;-64
2022/03/11 10:49:01;;;;;;;;;;;;;;;;;;4804673;29;20082;-65
2022/03/11 10:51:28;;;;;;;36.00;21.13;;;;;;;;;;4820811;29;19983;-63
2022/03/11 10:53:55;;;;;;;32.97;20.05;;;;;;;;;;4804599;29;20106;-70
2022/03/11 10:56:29;;;;;;;34.35;20.13;;;;;;;;;;4835160;29;20428;-67
2022/03/11 10:58:58;;;;;;;38.75;20.95;;;;;;;;;;4821248;29;20072;-66
2022/03/11 11:01:41;;;;;;;34.78;21.35;;;;;;;;;;4820944;29;20054;-68
2022/03/11 11:04:08;;;;;;;36.95;20.38;;;;;;;;;;4814940;29;20046;-68
2022/03/11 11:06:35;;;;;;;36.15;20.08;;;;;;;;;;4820775;29;20057;-65
2022/03/11 11:09:01;;;;;;;;;;;;;;;;;;4821329;29;20500;-64
2022/03/11 11:11:27;;;;;;;35.30;20.85;;;;;;;;;;4820738;29;20055;-63
2022/03/11 11:13:53;;;;;;;;;;;;;;;;;;4834824;29;20064;-64
2022/03/11 11:16:24;;;;;;;33.45;19.95;;;;;;;;;;4820580;29;20007;-67
2022/03/11 11:18:52;;;;;;;40.47;21.30;;;;;;;;;;4820593;29;20064;-65
2022/03/11 11:21:24;;;;;;;33.20;19.27;;;;;;;;;;4820633;29;20108;-65
2022/03/11 11:23:56;;;;;;;34.30;20.27;;;;;;;;;;4820937;29;20054;-68
2022/03/11 11:26:23;;;;;;;32.53;18.55;;;;;;;;;;4820902;29;20151;-64
2022/03/11 11:28:57;;;;;;;32.55;20.13;;;;;;;;;;4821238;29;20057;-67
2022/03/11 11:31:24;;;;;;;40.42;20.55;;;;;;;;;;4820439;29;20050;-66
2022/03/11 11:33:51;;;;;;;31.13;19.30;;;;;;;;;;4820193;29;20513;-67
2022/03/11 11:36:37;;;;;;;32.67;18.70;;;;;;;;;;4819836;29;20458;-66
2022/03/11 11:39:05;;;;;;;35.72;18.50;;;;;;;;;;4819872;29;20066;-68
2022/03/11 11:41:32;;;;;;;31.15;18.23;;;;;;;;;;4820231;29;20357;-64
2022/03/11 11:44:00;;;;;;;34.80;18.85;;;;;;;;;;4819826;29;20076;-67
2022/03/11 11:46:27;;;;;;;31.17;18.25;;;;;;;;;;4820125;29;20058;-64
2022/03/11 11:48:53;;;;;;;33.00;18.05;;;;;;;;;;4820376;29;20054;-66
2022/03/11 11:51:20;;;;;;;30.33;17.38;;;;;;;;;;4819773;29;20054;-62
2022/03/11 11:53:54;;;;;;;32.90;18.08;;;;;;;;;;4819284;29;20093;-64
2022/03/11 11:56:36;;;;;;;36.40;18.98;;;;;;;;;;4819595;29;20065;-71
2022/03/11 11:59:08;;;;;;;31.25;18.80;;;;;;;;;;4819429;29;20130;-70
2022/03/11 12:01:41;;;;;;;32.70;17.58;;;;;;;;;;4820346;29;20180;-67
2022/03/11 12:04:25;;;;;;;33.33;18.20;;;;;;;;;;4819942;29;20058;-64
2022/03/11 12:07:01;;;;;;;34.20;18.13;;;;;;;;;;4820166;29;20077;-67
2022/03/11 12:09:42;;;;;;;37.38;18.75;;;;;;;;;;4821114;29;20094;-64
2022/03/11 12:12:12;;;;;;;32.88;18.48;;;;;;;;;;4820343;29;20094;-65
2022/03/11 12:15:08;;;;;;;30.55;18.08;;;;;;;;;;4821092;29;20145;-66
2022/03/11 12:17:48;;;;;;;34.70;19.08;;;;;;;;;;4793437;29;20376;-66
2022/03/11 12:20:23;;;;;;;28.15;16.58;;;;;;;;;;4821036;29;20073;-64
2022/03/11 12:22:57;;;;;;;30.85;17.60;;;;;;;;;;4820620;29;20107;-63
2022/03/11 12:25:50;;;;;;;34.35;18.77;;;;;;;;;;4820887;29;20054;-64
2022/03/11 12:28:16;;;;;;;33.25;18.73;;;;;;;;;;4817135;29;20225;-63
2022/03/11 12:30:48;;;;;;;31.42;17.77;;;;;;;;;;4820191;29;20057;-71
2022/03/11 12:33:15;;;;;;;28.95;16.30;;;;;;;;;;4819916;29;20046;-65
2022/03/11 12:35:42;;;;;;;34.22;17.38;;;;;;;;;;4820157;29;20050;-66
2022/03/11 12:38:08;;;;;;;;;;;;;;;;;;4820623;29;20077;-63
2022/03/11 12:40:34;;;;;;;31.10;17.77;;;;;;;;;;4820218;29;19947;-69
2022/03/11 12:43:02;;;;;;;28.42;15.98;;;;;;;;;;4819952;29;20390;-63
2022/03/11 12:45:36;;;;;;;29.25;17.15;;;;;;;;;;4821005;29;20086;-64
2022/03/11 12:48:02;;;;;;;31.75;17.60;;;;;;;;;;4820340;29;20426;-65
2022/03/11 12:50:28;;;;;;;30.42;16.63;;;;;;;;;;4803273;29;20214;-65
2022/03/11 12:52:58;;;;;;;28.23;16.13;;;;;;;;;;4820602;29;20058;-68
2022/03/11 12:55:33;;;;;;;30.00;17.23;;;;;;;;;;4820614;29;20054;-67
2022/03/11 12:58:00;;;;;;;26.13;15.95;;;;;;;;;;4833873;29;20561;-63
2022/03/11 13:00:29;;;;;;;33.15;16.20;;;;;;;;;;4819768;29;20121;-68
2022/03/11 13:02:56;;;;;;;26.50;16.20;;;;;;;;;;4832767;29;20050;-64
2022/03/11 13:05:31;;;;;;;30.50;16.55;;;;;;;;;;4819439;29;20050;-64
2022/03/11 13:08:01;;;;;;;28.25;16.70;;;;;;;;;;4820276;29;20062;-62
2022/03/11 13:10:27;;;;;;;26.88;15.77;;;;;;;;;;4820329;29;20073;-68
2022/03/11 13:12:57;;;;;;;26.95;15.90;;;;;;;;;;4820448;29;20057;-71
2022/03/11 13:15:27;;;;;;;28.88;16.58;;;;;;;;;;4820117;29;20050;-64
2022/03/11 13:17:58;;;;;;;25.52;15.45;;;;;;;;;;4819554;29;20058;-67
2022/03/11 13:20:40;;;;;;;27.92;15.82;;;;;;;;;;4819810;29;20142;-64
2022/03/11 13:23:11;;;;;;;27.15;14.60;;;;;;;;;;4819380;29;20051;-67
2022/03/11 13:25:39;;;;;;;29.88;15.60;;;;;;;;;;4819373;29;20136;-61
2022/03/11 13:28:05;;;;;;;29.30;15.80;;;;;;;;;;4819017;29;20120;-64
2022/03/11 13:30:41;;;;;;;25.50;13.88;;;;;;;;;;4833162;29;20348;-68
2022/03/11 13:33:21;;;;;;;25.45;14.57;;;;;;;;;;4819203;29;20062;-65
2022/03/11 13:35:48;;;;;;;30.30;15.80;;;;;;;;;;4818732;29;20519;-63
2022/03/11 13:38:40;;;;;;;27.65;14.73;;;;;;;;;;4819182;29;20048;-69
2022/03/11 13:41:08;;;;;;;30.48;14.73;;;;;;;;;;4816396;29;20505;-64
2022/03/11 13:43:35;;;;;;;25.08;14.43;;;;;;;;;;4803619;29;20098;-67
2022/03/11 13:46:01;;;;;;;27.58;15.48;;;;;;;;;;4819799;29;20046;-64
2022/03/11 13:48:34;;;;;;;27.20;15.32;;;;;;;;;;4820027;29;20156;-68
2022/03/11 13:51:05;;;;;;;26.05;15.38;;;;;;;;;;4819723;29;20080;-67
2022/03/11 13:53:31;;;;;;;25.70;15.02;;;;;;;;;;4819844;29;20058;-66
2022/03/11 13:56:00;;;;;;;26.65;13.88;;;;;;;;;;4819523;29;20061;-68
2022/03/11 13:58:27;;;;;;;25.83;14.55;;;;;;;;;;4819793;29;20123;-68
2022/03/11 14:00:54;;;;;;;27.70;14.45;;;;;;;;;;4819021;29;20445;-65
2022/03/11 14:03:22;;;;;;;29.20;15.18;;;;;;;;;;4819002;29;20141;-71
2022/03/11 14:05:49;;;;;;;25.45;13.77;;;;;;;;;;4802511;29;20440;-70
2022/03/11 14:08:41;;;;;;;22.20;14.15;;;;;;;;;;4818440;29;20361;-62
2022/03/11 14:11:08;;;;;;;24.60;14.15;;;;;;;;;;4815080;29;20074;-64
2022/03/11 14:13:36;;;;;;;28.65;14.57;;;;;;;;;;4802160;29;20173;-64
2022/03/11 14:16:06;;;;;;;26.92;14.02;;;;;;;;;;4818439;29;20089;-64
2022/03/11 14:18:33;;;;;;;29.65;13.82;;;;;;;;;;4818185;29;20058;-64
2022/03/11 14:20:59;;;;;;;26.30;13.75;;;;;;;;;;4818173;29;20254;-69
2022/03/11 14:23:25;;;;;;;26.58;13.10;;;;;;;;;;4820007;29;20094;-62
2022/03/11 14:25:51;;;;;;;25.25;13.82;;;;;;;;;;4805360;29;20086;-69